createdAt,value
2017-03-20T00:07:32.514Z,10.62
2017-03-20T00:17:32.594Z,10.62
2017-03-20T00:27:32.538Z,10.63
2017-03-20T00:37:32.610Z,10.6
2017-03-20T00:47:32.592Z,10.68
2017-03-20T00:57:32.626Z,10.7
2017-03-20T01:07:32.626Z,10.7
2017-03-20T01:17:32.709Z,10.73
2017-03-20T01:27:32.615Z,10.78
2017-03-20T01:37:32.681Z,10.77
2017-03-20T01:47:32.652Z,10.71
2017-03-20T01:57:32.626Z,10.77
2017-03-20T02:07:32.691Z,10.77
2017-03-20T02:17:32.632Z,10.62
2017-03-20T02:27:32.683Z,10.55
2017-03-20T02:37:32.651Z,10.56
2017-03-20T02:47:32.776Z,10.53
2017-03-20T02:57:33.320Z,10.7
2017-03-20T03:07:32.730Z,10.56
2017-03-20T03:17:32.716Z,10.51
2017-03-20T03:27:32.763Z,10.43
2017-03-20T03:37:32.720Z,10.55
2017-03-20T03:47:32.801Z,10.58
2017-03-20T03:57:32.768Z,10.46
2017-03-20T04:07:32.835Z,10.4
2017-03-20T04:17:32.769Z,10.55
2017-03-20T04:27:32.724Z,10.59
2017-03-20T04:37:32.792Z,10.56
2017-03-20T04:47:32.754Z,10.62
2017-03-20T04:57:32.835Z,10.55
2017-03-20T05:07:32.784Z,10.47
2017-03-20T05:17:32.851Z,10.51
2017-03-20T05:27:35.255Z,10.6
2017-03-20T05:37:32.870Z,10.63
2017-03-20T05:47:39.972Z,10.65
2017-03-20T05:57:32.904Z,10.59
2017-03-20T06:07:32.853Z,10.7
2017-03-20T06:17:32.901Z,10.66
2017-03-20T06:27:32.904Z,10.71
2017-03-20T06:37:39.672Z,10.77
2017-03-20T06:47:32.902Z,10.84
2017-03-20T06:57:32.841Z,11.09
2017-03-20T07:07:32.941Z,11.29
2017-03-20T07:17:32.894Z,11.27
2017-03-20T07:27:32.944Z,11.36
2017-03-20T07:37:32.903Z,11.32
2017-03-20T07:47:33.595Z,11.36
2017-03-20T07:57:33.659Z,11.28
2017-03-20T08:07:33.152Z,11.39
2017-03-20T08:17:33.289Z,11.46
2017-03-20T08:27:33.043Z,11.62
2017-03-20T08:37:32.985Z,11.54
2017-03-20T08:47:33.292Z,11.85
2017-03-20T08:57:33.028Z,12.04
2017-03-20T09:07:32.987Z,12.34
2017-03-20T09:17:32.984Z,12.59
2017-03-20T09:27:32.979Z,12.87
2017-03-20T09:37:33.002Z,12.81
2017-03-20T09:47:33.017Z,12.62
2017-03-20T09:57:33.090Z,12.59
2017-03-20T10:07:33.015Z,12.39
2017-03-20T10:17:33.005Z,12.41
2017-03-20T10:27:33.591Z,12.45
2017-03-20T10:37:33.058Z,12.45
2017-03-20T10:47:33.052Z,13.06
2017-03-20T10:57:33.047Z,13.14
2017-03-20T11:07:33.107Z,13.18
2017-03-20T11:17:33.092Z,13.02
2017-03-20T11:27:33.085Z,13.27
2017-03-20T11:37:33.106Z,13.03
2017-03-20T11:47:33.100Z,12.96
2017-03-20T11:57:33.154Z,12.96
2017-03-20T12:07:33.167Z,13.04
2017-03-20T12:17:39.144Z,13.76
2017-03-20T12:27:34.064Z,14.46
2017-03-20T12:37:33.335Z,14.78
2017-03-20T12:47:33.192Z,14.86
2017-03-20T12:57:33.343Z,14.47
2017-03-20T13:07:34.139Z,14.52
2017-03-20T13:17:33.313Z,14.64
2017-03-20T13:27:33.269Z,14.54
2017-03-20T13:37:33.509Z,14.72
2017-03-20T13:47:33.274Z,14.65
2017-03-20T13:57:33.351Z,14.93
2017-03-20T14:07:33.320Z,15.02
2017-03-20T14:17:33.381Z,14.69
2017-03-20T14:27:33.332Z,14.19
2017-03-20T14:37:33.386Z,14.34
2017-03-20T14:47:33.346Z,14.13
2017-03-20T14:57:33.420Z,13.76
2017-03-20T15:07:33.370Z,13.44
2017-03-20T15:17:33.456Z,13.18
2017-03-20T15:27:33.468Z,13.11
2017-03-20T15:37:33.386Z,13.07
2017-03-20T15:47:33.427Z,13.59
2017-03-20T15:57:33.708Z,13.91
2017-03-20T16:07:33.426Z,13.59
2017-03-20T16:17:33.455Z,13.27
2017-03-20T16:27:33.538Z,13.21
2017-03-20T16:37:33.439Z,13.18
2017-03-20T16:47:33.611Z,13.12
2017-03-20T16:57:33.478Z,13.11
2017-03-20T17:07:33.520Z,13.02
2017-03-20T17:17:33.491Z,12.82
2017-03-20T17:27:33.560Z,12.85
2017-03-20T17:37:33.566Z,12.74
2017-03-20T17:47:33.500Z,12.74
2017-03-20T17:57:33.613Z,12.7
2017-03-20T18:07:33.583Z,12.42
2017-03-20T18:17:33.922Z,12.46
2017-03-20T18:27:34.002Z,12.23
2017-03-20T18:37:33.825Z,12.24
2017-03-20T18:47:33.739Z,11.89
2017-03-20T18:57:33.546Z,11.61
2017-03-20T19:07:33.884Z,11.57
2017-03-20T19:17:33.762Z,11.25
2017-03-20T19:27:33.666Z,11.19
2017-03-20T19:37:33.753Z,11.09
2017-03-20T19:47:34.288Z,11.02
2017-03-20T19:57:33.857Z,10.88
2017-03-20T20:07:33.750Z,10.86
2017-03-20T20:17:33.789Z,11.11
2017-03-20T20:27:33.953Z,11.11
2017-03-20T20:37:33.746Z,11.38
2017-03-20T20:47:33.865Z,11.46
2017-03-20T20:57:33.950Z,11.52
2017-03-20T21:07:33.975Z,11.52
2017-03-20T21:17:33.906Z,11.54
2017-03-20T21:27:54.375Z,11.53
2017-03-20T21:37:54.468Z,11.56
2017-03-20T21:47:54.407Z,11.52
2017-03-20T21:57:54.421Z,11.57
2017-03-20T22:07:54.599Z,11.5
2017-03-20T22:17:54.400Z,11.46
2017-03-20T22:27:54.436Z,11.47
2017-03-20T22:37:54.407Z,11.36
2017-03-20T22:47:54.380Z,11.02
2017-03-20T22:57:54.640Z,10.91
2017-03-20T23:07:54.529Z,11.06
2017-03-20T23:17:54.399Z,11.31
2017-03-20T23:27:54.410Z,11.16
2017-03-20T23:37:54.522Z,10.94
2017-03-20T23:47:54.501Z,10.88
2017-03-20T23:57:54.439Z,10.91
